Time;durP1;ratioP1;P1;durP2;ratioP2;P2;SDS_P1;SDS_P2;PMS_P1;PMS_P2;Temp;Humidity;BMP_temperature;BMP_pressure;BME280_temperature;BME280_humidity;BME280_pressure;Samples;Min_cycle;Max_cycle;Signal;HPM_P1;HPM_P2
2022/07/13 00:01:09;;;;;;;2.03;1.40;;;16.90;61.90;;;17.20;48.95;95424.53;5046394;28;20480;-60
2022/07/13 00:03:36;;;;;;;1.83;1.20;;;16.90;62.20;;;17.15;48.87;95416.22;5045882;28;20458;-60
2022/07/13 00:06:05;;;;;;;1.40;1.30;;;16.80;62.20;;;17.10;49.21;95419.41;5045974;28;20504;-59
2022/07/13 00:08:33;;;;;;;2.43;1.17;;;16.70;62.50;;;17.04;49.21;95406.78;5046228;28;20935;-62
2022/07/13 00:11:00;;;;;;;1.13;0.97;;;16.70;62.70;;;16.98;49.68;95408.25;5046613;28;20908;-61
2022/07/13 00:13:27;;;;;;;3.30;1.30;;;16.60;63.00;;;16.93;49.76;95407.94;5046004;28;20525;-60
2022/07/13 00:15:55;;;;;;;2.07;1.50;;;16.60;63.10;;;16.88;50.07;95412.06;5045770;28;20468;-60
2022/07/13 00:18:22;;;;;;;1.87;1.47;;;16.50;63.60;;;16.82;50.07;95408.22;5045244;28;20491;-58
2022/07/13 00:20:49;;;;;;;2.37;1.50;;;16.50;63.70;;;16.77;49.98;95414.00;5046028;28;20472;-61
2022/07/13 00:23:19;;;;;;;3.00;2.33;;;16.40;63.60;;;16.73;50.24;95418.00;5045413;28;20452;-57
2022/07/13 00:25:46;;;;;;;3.73;1.40;;;16.40;64.00;;;16.68;50.30;95409.69;5045315;28;20506;-59
2022/07/13 00:28:13;;;;;;;1.37;1.10;;;16.40;64.10;;;16.64;50.47;95409.19;5044621;28;20452;-56
2022/07/13 00:30:41;;;;;;;4.83;1.50;;;16.30;64.40;;;16.59;50.65;95408.88;5042510;28;21125;-57
2022/07/13 00:33:08;;;;;;;3.37;1.17;;;16.20;64.60;;;16.55;50.98;95404.03;5045381;28;20486;-60
2022/07/13 00:35:35;;;;;;;2.23;0.80;;;16.20;65.10;;;16.51;51.05;95405.34;5044669;28;20479;-57
2022/07/13 00:38:02;;;;;;;4.83;1.47;;;16.20;65.30;;;16.46;51.35;95403.19;5044659;28;20479;-60
2022/07/13 00:40:31;;;;;;;1.83;1.10;;;16.10;65.50;;;16.40;51.58;95404.66;5045072;28;20480;-60
2022/07/13 00:42:58;;;;;;;2.30;1.57;;;16.10;66.60;;;16.34;51.61;95397.34;5044490;28;20447;-59
2022/07/13 00:45:26;;;;;;;2.80;1.23;;;16.00;66.00;;;16.29;51.33;95404.97;5044727;28;20475;-58
2022/07/13 00:47:53;;;;;;;1.33;1.23;;;16.00;65.90;;;16.22;51.67;95403.94;5043418;28;20472;-60
2022/07/13 00:50:20;;;;;;;1.43;1.33;;;15.90;65.90;;;16.12;51.58;95418.19;5045086;28;20479;-58
2022/07/13 00:52:48;;;;;;;1.80;1.13;;;15.80;66.20;;;16.07;52.28;95415.19;5045537;28;20836;-58
2022/07/13 00:55:15;;;;;;;2.10;1.20;;;15.80;66.90;;;16.04;52.27;95417.34;5044804;28;20498;-57
2022/07/13 00:57:44;;;;;;;6.73;1.17;;;15.70;67.10;;;16.03;52.44;95415.66;5046325;28;20448;-58
2022/07/13 01:00:14;;;;;;;1.50;1.40;;;15.70;67.70;;;16.02;52.70;95414.84;5044932;28;20568;-60
2022/07/13 01:02:42;;;;;;;2.30;1.37;;;15.70;67.90;;;16.02;52.29;95429.91;5044739;28;20869;-61
2022/07/13 01:05:10;;;;;;;4.30;1.47;;;15.70;67.80;;;16.01;53.39;95423.78;5043596;28;20835;-58
2022/07/13 01:07:38;;;;;;;5.30;1.53;;;15.70;68.70;;;15.98;52.93;95413.50;5044983;28;20448;-58
2022/07/13 01:10:06;;;;;;;5.00;1.60;;;15.70;68.70;;;15.96;52.74;95410.19;5045260;28;20478;-60
2022/07/13 01:12:33;;;;;;;5.70;1.53;;;15.60;68.60;;;15.93;52.97;95408.66;5041800;28;20456;-59
2022/07/13 01:15:02;;;;;;;1.20;1.10;;;15.60;68.60;;;15.91;52.87;95407.16;5044763;28;20452;-58
2022/07/13 01:17:30;;;;;;;4.50;0.93;;;15.60;68.60;;;15.89;52.85;95404.66;5042240;28;20451;-58
2022/07/13 01:19:57;;;;;;;3.10;0.93;;;15.60;68.60;;;15.87;52.70;95406.66;5044918;28;20491;-57
2022/07/13 01:22:26;;;;;;;2.30;1.20;;;15.50;68.50;;;15.87;52.83;95411.97;5044016;28;20478;-58
2022/07/13 01:24:55;;;;;;;1.57;1.47;;;15.50;68.50;;;15.85;53.04;95410.44;5043628;28;20455;-60
2022/07/13 01:27:22;;;;;;;1.47;1.20;;;15.50;68.60;;;15.85;52.77;95405.13;5041999;28;20468;-60
2022/07/13 01:29:50;;;;;;;1.53;1.40;;;15.50;68.60;;;15.83;52.90;95409.78;5045215;28;20458;-60
2022/07/13 01:32:17;;;;;;;3.93;0.90;;;15.50;68.50;;;15.82;52.89;95408.09;5045071;28;20472;-60
2022/07/13 01:34:44;;;;;;;1.83;1.10;;;15.50;68.90;;;15.79;52.85;95409.28;5044614;28;20964;-57
2022/07/13 01:37:12;;;;;;;1.43;1.33;;;15.50;68.90;;;15.76;52.83;95393.66;5044731;28;20471;-57
2022/07/13 01:39:39;;;;;;;1.50;1.17;;;15.40;69.00;;;15.73;53.13;95400.09;5044170;28;20487;-60
2022/07/13 01:42:08;;;;;;;1.27;1.17;;;15.40;69.00;;;15.72;53.03;95406.41;5045074;28;20475;-59
2022/07/13 01:44:35;;;;;;;2.47;1.30;;;15.40;69.00;;;15.68;53.09;95394.44;5044070;28;20821;-57
2022/07/13 01:47:08;;;;;;;5.90;1.40;;;15.40;69.50;;;15.67;53.17;95394.59;5042507;28;20476;-58
2022/07/13 01:49:35;;;;;;;1.10;1.00;;;15.30;69.30;;;15.63;53.52;95396.75;5048512;28;20472;-57
2022/07/13 01:52:03;;;;;;;1.60;1.17;;;15.30;69.90;;;15.60;53.56;95397.06;5048851;28;20471;-58
2022/07/13 01:54:30;;;;;;;1.63;1.00;;;15.30;70.20;;;15.58;53.87;95393.72;5048104;28;20451;-62
2022/07/13 01:56:57;;;;;;;2.20;1.43;;;15.20;70.40;;;15.56;53.68;95399.19;5048440;28;20474;-59
2022/07/13 01:59:26;;;;;;;2.53;1.23;;;15.20;70.70;;;15.56;53.96;95393.06;5048111;28;20591;-58
2022/07/13 02:01:54;;;;;;;2.80;1.43;;;15.20;70.70;;;15.56;53.90;95399.19;5048961;28;21185;-58
2022/07/13 02:04:21;;;;;;;1.30;1.20;;;15.20;70.70;;;15.56;53.80;95408.97;5048593;28;20538;-58
2022/07/13 02:06:50;;;;;;;1.40;1.10;;;15.20;70.70;;;15.56;53.91;95409.78;5048648;28;20999;-58
2022/07/13 02:09:17;;;;;;;6.90;2.10;;;15.20;70.80;;;15.54;54.29;95411.78;5048566;28;20463;-61
2022/07/13 02:11:44;;;;;;;7.37;1.63;;;15.20;71.20;;;15.49;53.83;95415.88;5048284;28;20597;-59
2022/07/13 02:14:12;;;;;;;3.23;1.67;;;15.20;70.90;;;15.41;54.00;95416.66;5048530;28;20829;-60
2022/07/13 02:16:40;;;;;;;3.27;1.73;;;15.10;71.00;;;15.32;53.61;95413.13;5047927;28;20482;-60
2022/07/13 02:19:08;;;;;;;5.60;1.40;;;15.00;70.60;;;15.24;53.90;95408.59;5044532;28;20495;-58
2022/07/13 02:21:35;;;;;;;3.67;1.70;;;15.00;70.90;;;15.20;54.29;95414.38;5045342;28;20474;-60
2022/07/13 02:24:02;;;;;;;3.83;1.20;;;14.90;71.20;;;15.14;54.51;95405.22;5047275;28;20451;-56
2022/07/13 02:26:29;;;;;;;6.53;1.83;;;14.90;71.80;;;15.14;54.86;95404.41;5047769;28;20487;-60
2022/07/13 02:28:57;;;;;;;2.80;1.67;;;14.90;72.30;;;15.15;54.78;95403.38;5048068;28;20547;-61
2022/07/13 02:31:24;;;;;;;1.83;1.73;;;14.90;72.80;;;15.15;54.74;95408.69;5048145;28;20621;-59
2022/07/13 02:33:53;;;;;;;3.37;1.63;;;14.90;73.00;;;15.16;54.76;95403.22;5047763;28;20448;-60
2022/07/13 02:36:20;;;;;;;9.03;2.83;;;14.90;73.20;;;15.16;55.40;95411.19;5047805;28;20829;-61
2022/07/13 02:38:48;;;;;;;7.93;1.80;;;14.90;73.80;;;15.16;55.35;95407.72;5047908;28;20509;-58
2022/07/13 02:41:15;;;;;;;1.67;1.57;;;14.90;74.00;;;15.16;55.62;95407.72;5047318;28;20472;-57
2022/07/13 02:43:42;;;;;;;5.53;1.70;;;14.90;74.20;;;15.17;55.59;95404.91;5047662;28;20452;-60
2022/07/13 02:46:10;;;;;;;1.93;1.50;;;14.90;74.40;;;15.19;55.79;95413.53;5044260;28;20472;-60
2022/07/13 02:48:38;;;;;;;6.57;1.63;;;14.90;74.40;;;15.22;55.90;95415.03;5047271;28;20976;-57
2022/07/13 02:51:07;;;;;;;2.40;1.53;;;14.90;75.10;;;15.23;55.96;95403.47;5047425;28;20468;-57
2022/07/13 02:53:34;;;;;;;1.90;1.80;;;14.90;75.10;;;15.26;55.75;95413.75;5047109;28;20456;-61
2022/07/13 02:56:01;;;;;;;1.67;1.57;;;14.90;75.50;;;15.27;56.01;95410.09;5047225;28;20478;-60
2022/07/13 02:58:29;;;;;;;1.33;1.23;;;14.90;75.40;;;15.29;55.89;95415.25;5046724;28;20451;-59
2022/07/13 03:00:56;;;;;;;2.17;1.60;;;14.90;75.40;;;15.29;56.31;95413.44;5047759;28;21133;-58
2022/07/13 03:03:24;;;;;;;8.93;2.27;;;15.00;76.00;;;15.29;55.75;95417.88;5047131;28;20447;-60
2022/07/13 03:05:51;;;;;;;2.00;1.60;;;15.00;75.60;;;15.28;56.14;95419.72;5047602;28;20663;-59
2022/07/13 03:08:20;;;;;;;2.60;1.93;;;15.00;76.10;;;15.29;56.48;95416.09;5047288;28;20479;-60
2022/07/13 03:10:47;;;;;;;2.20;1.90;;;14.90;76.50;;;15.30;56.22;95419.56;5046987;28;20489;-61
2022/07/13 03:13:15;;;;;;;2.53;2.00;;;15.00;76.60;;;15.29;56.38;95416.09;5047283;28;20452;-60
2022/07/13 03:15:42;;;;;;;4.03;1.87;;;15.00;76.40;;;15.28;56.09;95414.41;5045208;28;20514;-58
2022/07/13 03:18:09;;;;;;;8.37;2.20;;;15.00;76.60;;;15.27;56.23;95415.41;5046832;28;20945;-59
2022/07/13 03:20:37;;;;;;;2.93;1.53;;;15.00;76.60;;;15.31;55.99;95411.47;5046611;28;20500;-58
2022/07/13 03:23:04;;;;;;;3.50;1.40;;;15.00;76.60;;;15.34;55.97;95405.84;5046393;28;20452;-59
2022/07/13 03:25:32;;;;;;;11.93;1.87;;;15.00;76.60;;;15.38;55.62;95395.75;5046636;28;20529;-59
2022/07/13 03:28:00;;;;;;;7.23;1.73;;;15.00;76.10;;;15.39;55.72;95403.56;5046420;28;20459;-60
2022/07/13 03:30:28;;;;;;;2.90;1.40;;;15.10;76.20;;;15.40;55.70;95402.56;5045913;28;20460;-61
2022/07/13 03:32:55;;;;;;;2.40;1.63;;;15.10;76.00;;;15.41;55.27;95401.59;5046392;28;20853;-61
2022/07/13 03:35:23;;;;;;;7.13;1.97;;;15.10;75.90;;;15.42;55.79;95399.75;5046626;28;20478;-60
2022/07/13 03:37:50;;;;;;;8.63;1.90;;;15.10;75.90;;;15.45;55.25;95401.28;5045792;28;20448;-58
2022/07/13 03:40:17;;;;;;;5.27;1.70;;;15.10;75.90;;;15.46;55.14;95406.44;5046626;28;20519;-58
2022/07/13 03:42:46;;;;;;;4.50;1.53;;;15.10;75.70;;;15.48;55.37;95411.56;5044443;28;20452;-59
2022/07/13 03:45:13;;;;;;;16.50;2.57;;;15.20;76.30;;;15.52;55.29;95412.91;5046600;28;20451;-61
2022/07/13 03:47:41;;;;;;;5.17;1.70;;;15.20;76.10;;;15.58;55.30;95413.13;5046598;28;20491;-60
2022/07/13 03:50:09;;;;;;;11.83;1.73;;;15.20;76.00;;;15.62;55.30;95408.34;5046227;28;20448;-61
2022/07/13 03:52:36;;;;;;;1.63;1.40;;;15.30;76.40;;;15.66;55.07;95415.00;5044861;28;20444;-59
2022/07/13 03:55:04;;;;;;;2.37;1.70;;;15.30;75.80;;;15.69;55.19;95406.72;5046173;28;20460;-58
2022/07/13 03:57:31;;;;;;;4.27;2.10;;;15.30;76.10;;;15.72;55.21;95405.56;5046380;28;20448;-61
2022/07/13 04:00:00;;;;;;;5.57;1.73;;;15.30;75.80;;;15.76;54.81;95407.72;5045898;28;20883;-58
2022/07/13 04:02:27;;;;;;;2.73;1.23;;;15.40;75.70;;;15.81;55.05;95411.78;5044522;28;20459;-57
2022/07/13 04:04:54;;;;;;;4.53;2.03;;;15.50;75.90;;;15.86;55.00;95409.47;5045797;28;20459;-61
2022/07/13 04:07:22;;;;;;;2.80;2.20;;;15.50;75.70;;;15.89;54.77;95412.63;5045849;28;20472;-60
2022/07/13 04:09:49;;;;;;;3.20;2.40;;;15.50;75.40;;;15.95;54.73;95414.63;5044692;28;20455;-62
2022/07/13 04:12:21;;;;;;;3.00;1.93;;;15.60;75.60;;;15.99;54.75;95412.50;5045612;28;20471;-56
2022/07/13 04:14:49;;;;;;;5.93;2.00;;;15.60;75.30;;;16.03;54.59;95405.88;5045236;28;20541;-61
2022/07/13 04:17:17;;;;;;;5.40;2.00;;;15.70;75.50;;;16.07;54.38;95417.84;5043931;28;20472;-58
2022/07/13 04:19:45;;;;;;;6.27;2.80;;;15.70;75.30;;;16.09;54.67;95421.16;5044019;28;21119;-57
2022/07/13 04:22:12;;;;;;;1.93;1.83;;;15.80;75.90;;;16.12;54.23;95420.84;5044479;28;20527;-57
2022/07/13 04:24:39;;;;;;;6.17;2.33;;;15.70;75.00;;;16.16;54.73;95426.69;5045607;28;20462;-61
2022/07/13 04:27:07;;;;;;;4.20;1.77;;;15.80;76.00;;;16.19;53.84;95421.03;5043196;28;20468;-61
2022/07/13 04:29:34;;;;;;;3.67;3.00;;;15.90;74.80;;;16.21;54.17;95436.81;5045202;28;20482;-61
2022/07/13 04:32:01;;;;;;;2.57;1.47;;;15.90;75.00;;;16.22;53.89;95441.09;5043855;28;20471;-62
2022/07/13 04:34:30;;;;;;;12.87;1.80;;;15.90;74.60;;;16.22;53.81;95441.09;5045433;28;20451;-58
2022/07/13 04:36:57;;;;;;;9.83;1.77;;;15.90;74.30;;;16.21;53.90;95437.63;5045489;28;20478;-57
2022/07/13 04:39:25;;;;;;;4.27;1.90;;;15.90;74.40;;;16.20;53.84;95440.44;5044775;28;20494;-58
2022/07/13 04:41:52;;;;;;;6.20;2.27;;;15.90;74.50;;;16.20;53.64;95432.47;5045202;28;20472;-61
2022/07/13 04:44:20;;;;;;;4.43;2.23;;;15.90;75.00;;;16.18;53.82;95429.16;5044792;28;20458;-57
2022/07/13 04:46:47;;;;;;;14.47;2.90;;;15.90;74.10;;;16.18;53.64;95424.69;5044676;28;20537;-58
2022/07/13 04:49:19;;;;;;;3.30;1.87;;;15.90;74.00;;;16.19;53.78;95430.81;5044497;28;20463;-61
2022/07/13 04:51:48;;;;;;;8.20;2.93;;;15.90;74.30;;;16.21;53.93;95421.69;5044466;28;20452;-60
2022/07/13 04:54:16;;;;;;;2.40;2.00;;;15.90;74.60;;;16.26;53.96;95423.88;5045031;28;20510;-58
2022/07/13 04:56:44;;;;;;;9.80;2.00;;;15.90;74.90;;;16.30;54.36;95439.31;5044946;28;20508;-58
2022/07/13 04:59:12;;;;;;;7.50;1.83;;;16.00;75.60;;;16.36;54.35;95437.84;5045057;28;20452;-60
2022/07/13 05:01:39;;;;;;;5.33;2.63;;;16.00;75.50;;;16.44;54.48;95429.09;5042708;28;20479;-58
2022/07/13 05:04:06;;;;;;;1.80;1.53;;;16.00;75.60;;;16.51;54.48;95426.59;5043936;28;20842;-57
2022/07/13 05:06:34;;;;;;;8.00;1.97;;;16.10;75.80;;;16.61;54.31;95432.59;5044902;28;21014;-60
2022/07/13 05:09:03;;;;;;;4.60;1.90;;;16.20;75.80;;;16.71;54.31;95429.78;5045167;28;20451;-60
2022/07/13 05:11:30;;;;;;;2.60;2.40;;;16.30;76.00;;;16.80;53.94;95429.63;5044862;28;20471;-56
2022/07/13 05:13:57;;;;;;;5.40;3.53;;;16.40;75.60;;;16.92;54.00;95438.16;5045064;28;21075;-61
2022/07/13 05:16:25;;;;;;;6.67;4.47;;;16.50;75.50;;;17.03;53.42;95429.03;5041593;28;20467;-59
2022/07/13 05:18:52;;;;;;;5.50;3.23;;;16.60;74.70;;;17.16;53.68;95437.31;5042474;28;20740;-59
2022/07/13 05:21:19;;;;;;;4.20;2.47;;;16.70;74.70;;;17.30;53.01;95443.78;5046344;28;20495;-59
2022/07/13 05:23:47;;;;;;;8.03;2.20;;;16.80;74.50;;;17.48;52.75;95438.28;5048742;28;20451;-59
2022/07/13 05:26:16;;;;;;;13.30;2.30;;;17.00;74.30;;;17.68;52.87;95441.41;5048783;28;20475;-56
2022/07/13 05:28:43;;;;;;;2.43;2.03;;;17.20;73.80;;;17.84;52.28;95439.72;5049067;28;20451;-61
2022/07/13 05:31:11;;;;;;;3.70;1.93;;;17.40;73.10;;;18.02;51.49;95439.53;5048064;28;20467;-59
2022/07/13 05:33:38;;;;;;;1.93;1.73;;;17.50;72.60;;;18.25;51.95;95437.75;5048192;28;20473;-61
2022/07/13 05:36:07;;;;;;;4.97;1.83;;;17.70;72.60;;;18.48;51.47;95439.63;5048993;28;20515;-57
2022/07/13 05:38:34;;;;;;;4.30;1.63;;;17.90;72.10;;;18.70;51.20;95438.03;5049027;28;20451;-58
2022/07/13 05:41:01;;;;;;;4.40;1.60;;;18.20;71.80;;;18.95;50.88;95440.56;5048340;28;20709;-60
2022/07/13 05:43:30;;;;;;;1.70;1.60;;;18.40;71.60;;;19.22;50.40;95436.50;5048460;28;20459;-58
2022/07/13 05:45:58;;;;;;;12.70;2.03;;;18.60;71.10;;;19.44;50.32;95439.31;5045506;28;20475;-57
2022/07/13 05:48:25;;;;;;;10.73;2.00;;;18.90;70.80;;;19.76;49.83;95445.34;5048510;28;20454;-61
2022/07/13 05:50:52;;;;;;;3.27;1.47;;;19.10;70.30;;;20.02;49.56;95436.94;5047880;28;20482;-59
2022/07/13 05:53:20;;;;;;;5.30;1.83;;;19.40;69.50;;;20.27;49.07;95434.78;5048947;28;20451;-58
2022/07/13 05:55:47;;;;;;;2.40;1.67;;;19.60;69.10;;;20.50;48.32;95433.84;5048749;28;20545;-59
2022/07/13 05:58:15;;;;;;;3.77;1.60;;;19.90;67.90;;;20.74;47.71;95433.53;5048375;28;20968;-61
2022/07/13 06:00:43;;;;;;;8.90;1.63;;;20.10;66.80;;;20.99;46.47;95430.50;5048353;28;20976;-59
2022/07/13 06:03:11;;;;;;;3.93;1.53;;;20.40;65.40;;;21.21;46.65;95425.09;5044902;28;20467;-61
2022/07/13 06:05:38;;;;;;;3.33;1.67;;;20.60;64.60;;;21.41;45.82;95426.13;5048027;28;20466;-60
2022/07/13 06:08:06;;;;;;;2.80;1.57;;;20.80;63.80;;;21.65;45.54;95421.38;5048297;28;20490;-59
2022/07/13 06:10:33;;;;;;;5.30;1.23;;;21.00;63.40;;;21.91;45.32;95423.41;5048262;28;20483;-58
2022/07/13 06:13:01;;;;;;;12.27;1.80;;;21.30;63.30;;;22.13;44.77;95423.31;5048189;28;21009;-58
2022/07/13 06:15:28;;;;;;;6.33;1.63;;;21.50;62.20;;;22.33;44.08;95426.13;5047909;28;20463;-57
2022/07/13 06:17:57;;;;;;;4.90;1.60;;;21.70;61.30;;;22.52;43.19;95422.69;5045658;28;21051;-61
2022/07/13 06:20:24;;;;;;;11.93;2.20;;;21.80;59.50;;;22.70;43.32;95421.31;5046870;28;20495;-61
2022/07/13 06:25:33;;;;;;;4.37;1.47;;;22.20;58.80;;;23.13;42.91;95418.34;5045383;28;20750;-61
2022/07/13 06:28:00;;;;;;;3.33;1.13;;;22.50;59.00;;;23.36;42.32;95415.25;5047840;28;20474;-61
2022/07/13 06:30:28;;;;;;;21.43;2.03;;;22.70;58.60;;;23.56;41.80;95417.94;5047086;28;20499;-60
2022/07/13 06:32:57;;;;;;;1.53;1.20;;;22.90;58.30;;;23.78;39.72;95412.31;5045705;28;20467;-59
2022/07/13 06:35:24;;;;;;;5.03;1.80;;;23.10;56.60;;;23.99;41.28;95414.78;5047440;28;20995;-61
2022/07/13 06:37:51;;;;;;;2.17;1.67;;;23.30;57.20;;;24.20;40.56;95410.22;5047250;28;20456;-57
2022/07/13 06:40:19;;;;;;;4.13;1.60;;;23.40;56.80;;;24.36;40.83;95408.91;5047726;28;20521;-57
2022/07/13 06:42:46;;;;;;;3.10;1.00;;;23.60;56.20;;;24.52;39.87;95404.91;5047452;28;20482;-58
2022/07/13 06:45:14;;;;;;;9.63;1.00;;;23.80;55.90;;;24.72;39.61;95409.38;5048065;28;20484;-61
2022/07/13 06:47:42;;;;;;;6.33;3.63;;;24.00;55.30;;;24.94;39.11;95408.03;5046893;28;20538;-58
2022/07/13 06:50:11;;;;;;;3.83;2.80;;;24.20;54.80;;;25.13;39.04;95400.00;5046091;28;20634;-57
2022/07/13 06:52:40;;;;;;;4.00;2.17;;;24.40;54.30;;;25.28;38.66;95403.22;5047136;28;20543;-57
2022/07/13 06:55:09;;;;;;;6.37;3.40;;;24.50;54.20;;;25.40;38.54;95400.69;5047355;28;20525;-58
2022/07/13 06:57:36;;;;;;;5.30;3.00;;;24.70;53.00;;;25.53;37.62;95400.59;5047029;28;20456;-60
2022/07/13 07:00:04;;;;;;;3.40;2.10;;;24.80;53.00;;;25.68;37.99;95402.09;5046820;28;20571;-61
2022/07/13 07:02:32;;;;;;;10.53;1.83;;;24.90;52.90;;;25.84;37.04;95403.41;5045695;28;20451;-59
2022/07/13 07:04:59;;;;;;;2.10;1.33;;;25.10;51.80;;;25.94;37.01;95403.72;5046976;28;20508;-60
2022/07/13 07:07:28;;;;;;;2.50;1.47;;;25.20;51.40;;;26.06;36.88;95406.53;5047073;28;20526;-61
2022/07/13 07:09:55;;;;;;;1.90;0.93;;;25.40;51.60;;;26.19;36.54;95397.47;5046590;28;20927;-59
2022/07/13 07:12:23;;;;;;;5.10;1.20;;;25.50;50.50;;;26.33;36.67;95408.94;5046765;28;20999;-60
2022/07/13 07:14:50;;;;;;;7.23;1.23;;;25.60;51.50;;;26.48;36.39;95401.28;5046619;28;20455;-58
2022/07/13 07:17:17;;;;;;;1.70;1.30;;;25.70;50.60;;;26.58;36.55;95406.94;5046088;28;20464;-62
2022/07/13 07:19:45;;;;;;;2.80;0.90;;;25.90;50.60;;;26.71;36.19;95415.94;5046438;28;20456;-60
2022/07/13 07:22:12;;;;;;;3.70;1.10;;;26.00;50.60;;;26.80;35.93;95412.72;5044148;28;20556;-61
2022/07/13 07:24:41;;;;;;;2.97;1.13;;;26.10;50.20;;;26.94;35.42;95410.66;5046817;28;20455;-59
2022/07/13 07:27:10;;;;;;;7.17;1.07;;;26.20;49.80;;;27.07;34.41;95416.94;5044536;28;20910;-61
2022/07/13 07:29:38;;;;;;;2.03;1.30;;;26.30;49.10;;;27.23;34.96;95412.75;5046454;28;20455;-59
2022/07/13 07:32:06;;;;;;;6.73;1.50;;;26.50;48.60;;;27.35;33.84;95408.22;5046376;28;20877;-62
2022/07/13 07:34:33;;;;;;;1.30;1.10;;;26.60;47.50;;;27.47;34.83;95409.06;5045522;28;20458;-61
2022/07/13 07:37:01;;;;;;;6.77;1.50;;;26.70;48.30;;;27.63;33.12;95412.13;5046749;28;20519;-61
2022/07/13 07:39:28;;;;;;;5.10;1.60;;;26.90;47.00;;;27.72;34.49;95421.53;5046341;28;21002;-62
2022/07/13 07:41:57;;;;;;;1.50;1.00;;;27.00;47.90;;;27.77;34.24;95418.94;5046045;28;20491;-62
2022/07/13 07:44:24;;;;;;;10.43;1.00;;;27.00;47.80;;;27.89;34.25;95411.66;5045328;28;20451;-62
2022/07/13 07:46:51;;;;;;;6.57;1.57;;;27.10;47.50;;;28.01;33.75;95410.84;5045106;28;20493;-59
2022/07/13 07:49:19;;;;;;;2.00;1.27;;;27.20;47.00;;;28.11;33.41;95413.81;5045354;28;20490;-58
2022/07/13 07:51:46;;;;;;;4.73;0.90;;;27.30;46.70;;;28.24;33.32;95410.84;5046174;28;20475;-61
2022/07/13 07:54:14;;;;;;;11.07;1.10;;;27.50;46.70;;;28.41;31.82;95410.09;5046145;28;20461;-60
2022/07/13 07:56:41;;;;;;;4.83;1.10;;;27.60;45.10;;;28.53;32.46;95418.19;5043786;28;20499;-59
2022/07/13 07:59:10;;;;;;;7.03;1.43;;;27.70;45.30;;;28.61;32.26;95407.84;5044405;28;20538;-59
2022/07/13 08:01:37;;;;;;;8.77;1.37;;;27.80;45.40;;;28.75;32.76;95399.44;5045292;28;20526;-59
2022/07/13 08:04:05;;;;;;;2.93;1.30;;;28.00;45.60;;;28.90;32.34;95407.84;5044942;28;20462;-58
2022/07/13 08:06:32;;;;;;;3.83;1.20;;;28.10;45.60;;;29.09;32.25;95400.34;5045545;28;20482;-58
2022/07/13 08:09:00;;;;;;;2.00;0.83;;;28.30;44.90;;;29.28;31.59;95397.44;5045845;28;20841;-58
2022/07/13 08:11:27;;;;;;;2.50;1.37;;;28.40;44.70;;;29.44;32.42;95403.97;5045597;28;20558;-60
2022/07/13 08:13:55;;;;;;;1.47;1.20;;;28.60;44.80;;;29.62;32.14;95392.88;5045751;28;20480;-59
2022/07/13 08:16:24;;;;;;;6.20;1.00;;;28.80;44.40;;;29.78;31.69;95403.97;5045401;28;20467;-58
2022/07/13 08:18:51;;;;;;;3.20;1.07;;;29.00;43.80;;;29.90;31.40;95402.00;5044626;28;20447;-57
2022/07/13 08:21:18;;;;;;;5.20;1.43;;;29.10;43.50;;;29.98;30.52;95400.75;5045512;28;20494;-58
2022/07/13 08:23:52;;;;;;;1.00;0.90;;;29.20;43.20;;;30.02;31.09;95394.59;5045842;28;20542;-61
2022/07/13 08:26:19;;;;;;;3.33;2.47;;;29.30;43.10;;;30.05;31.20;95398.66;5044331;28;21073;-59
2022/07/13 08:28:47;;;;;;;13.97;9.50;;;29.30;43.00;;;30.11;31.20;95403.09;5045578;28;20459;-61
2022/07/13 08:31:14;;;;;;;3.03;2.70;;;29.30;42.90;;;30.24;30.16;95399.22;5045359;28;20466;-60
2022/07/13 08:39:13;;;;;;;9.30;1.80;;;29.80;42.50;;;30.69;29.64;95392.75;5044084;28;20439;-61
2022/07/13 08:41:40;;;;;;;2.17;1.70;;;29.90;41.80;;;30.83;29.56;95397.75;5044982;28;20585;-58
2022/07/13 08:44:08;;;;;;;3.20;1.23;;;30.00;41.00;;;30.94;29.92;95394.09;5045123;28;20487;-59
2022/07/13 08:47:41;;;;;;;3.30;1.40;;;30.10;41.40;;;31.16;28.86;95402.22;5043335;28;20507;-59
2022/07/13 08:50:10;;;;;;;10.63;0.97;;;30.40;40.60;;;31.37;28.86;95391.53;5045854;28;20275;-58
2022/07/13 08:52:39;;;;;;;13.60;1.60;;;30.60;40.40;;;31.58;29.15;95400.72;5044798;28;20208;-59
2022/07/13 08:55:08;;;;;;;6.97;1.17;;;30.80;40.30;;;31.74;28.29;95402.47;5043956;28;20291;-62
2022/07/13 08:57:36;;;;;;;3.30;0.93;;;30.90;39.90;;;31.91;28.13;95402.31;5045515;28;20201;-60
2022/07/13 09:00:06;;;;;;;5.07;1.00;;;31.10;40.00;;;32.06;28.31;95393.44;5045068;28;20201;-57
2022/07/13 09:02:34;;;;;;;5.27;1.10;;;31.30;39.40;;;32.17;28.21;95392.44;5044045;28;20345;-57
2022/07/13 09:05:03;;;;;;;2.80;1.57;;;31.40;39.20;;;32.16;27.70;95385.38;5045129;28;20657;-59
2022/07/13 09:07:33;;;;;;;0.90;0.77;;;31.50;38.80;;;32.31;27.90;95386.53;5045272;28;20274;-59
2022/07/13 09:10:01;;;;;;;3.03;1.43;;;31.60;38.80;;;32.52;27.88;95388.25;5045242;28;20262;-59
2022/07/13 09:12:29;;;;;;;9.10;2.60;;;31.70;38.70;;;32.68;27.33;95380.16;5045129;28;20292;-61
2022/07/13 09:14:57;;;;;;;3.05;1.70;;;31.90;38.20;;;32.85;26.83;95386.22;5045302;28;20205;-62
2022/07/13 09:17:36;;;;;;;2.23;1.73;;;32.00;37.80;;;32.88;26.50;95377.50;5044208;28;20217;-62
2022/07/13 09:20:19;;;;;;;7.05;2.78;;;32.10;37.40;;;32.97;25.88;95374.22;5043876;28;20200;-58
2022/07/13 09:22:52;;;;;;;2.10;1.53;;;32.20;36.50;;;32.94;26.54;95374.78;5042793;28;20343;-61
2022/07/13 09:25:31;;;;;;;7.60;1.17;;;32.20;37.10;;;32.73;26.07;95368.47;5043875;28;20228;-61
2022/07/13 09:28:01;;;;;;;6.43;1.40;;;32.10;36.60;;;32.42;26.22;95371.84;5044985;28;20193;-60
2022/07/13 09:30:29;;;;;;;4.93;1.00;;;31.80;36.50;;;32.21;26.97;95378.28;5045003;28;20227;-61
2022/07/13 09:32:57;;;;;;;5.60;1.20;;;31.70;37.30;;;32.00;27.01;95378.97;5043550;28;20716;-59
2022/07/13 09:35:43;;;;;;;2.47;1.10;;;31.40;37.30;;;31.73;27.05;95379.09;5044516;28;20335;-58
2022/07/13 09:38:28;;;;;;;4.47;0.97;;;31.20;37.00;;;31.42;25.78;95384.25;5042699;28;20208;-59
2022/07/13 09:40:55;;;;;;;0.97;0.87;;;30.90;36.20;;;30.98;26.54;95378.13;5044288;28;20313;-60
2022/07/13 09:46:10;;;;;;;1.73;0.87;;;30.00;36.70;;;30.04;27.56;95375.34;5042603;28;20227;-61
2022/07/13 09:48:37;;;;;;;2.83;1.33;;;29.60;37.70;;;29.84;28.64;95381.31;5044645;28;20258;-58
2022/07/13 09:51:05;;;;;;;0.90;0.60;;;29.30;38.60;;;29.65;28.49;95384.25;5044440;28;20702;-60
2022/07/13 09:53:36;;;;;;;3.73;0.70;;;29.10;38.00;;;29.40;28.10;95389.25;5044729;28;20311;-60
2022/07/13 09:56:05;;;;;;;2.50;0.80;;;28.80;38.20;;;29.21;28.82;95378.63;5044507;28;20236;-62
2022/07/13 09:58:33;;;;;;;3.07;1.23;;;28.70;38.50;;;29.05;28.19;95374.81;5044378;28;20208;-62
2022/07/13 10:01:02;;;;;;;8.60;0.63;;;28.50;38.50;;;29.09;28.87;95372.44;5044206;28;20545;-61
2022/07/13 10:03:29;;;;;;;2.13;0.83;;;28.40;39.50;;;29.24;29.30;95370.03;5044311;28;20493;-58
2022/07/13 10:05:57;;;;;;;2.60;0.90;;;28.50;39.90;;;29.26;29.23;95365.16;5044624;28;20471;-60
2022/07/13 10:08:24;;;;;;;1.53;1.00;;;28.50;39.50;;;29.19;28.93;95372.63;5045639;28;21022;-57
2022/07/13 10:10:53;;;;;;;6.83;0.70;;;28.50;39.50;;;29.04;29.21;95366.94;5048022;28;20871;-61
2022/07/13 10:13:20;;;;;;;5.23;1.27;;;28.40;39.50;;;28.82;28.97;95364.94;5047883;28;20463;-62
2022/07/13 10:15:48;;;;;;;4.67;1.27;;;28.30;39.70;;;28.79;29.98;95368.13;5047553;28;20797;-59
2022/07/13 10:18:21;;;;;;;1.87;0.87;;;28.20;40.40;;;29.03;30.03;95359.88;5047792;28;20447;-60
2022/07/13 10:20:54;;;;;;;2.87;0.63;;;28.30;41.10;;;29.31;29.52;95351.72;5047378;28;20554;-60
2022/07/13 10:23:38;;;;;;;4.93;0.90;;;28.60;40.40;;;29.51;29.15;95358.53;5047659;28;20545;-60
2022/07/13 10:26:19;;;;;;;1.60;0.90;;;28.70;40.00;;;29.41;28.42;95358.38;5047174;28;20467;-61
2022/07/13 10:29:04;;;;;;;5.30;1.17;;;28.70;39.00;;;29.19;29.65;95367.19;5048276;28;20512;-60
2022/07/13 10:31:33;;;;;;;1.93;0.87;;;28.60;40.00;;;28.90;29.81;95356.41;5047175;28;20471;-59
2022/07/13 10:34:01;;;;;;;0.97;0.67;;;28.40;40.10;;;28.68;29.68;95358.16;5047306;28;20463;-59